Garson, Canada
Current Conditions -  °F | °C
As of 12:00 AM on Wednesday 22 Oct 2014 (Local Time) from CYSB Reporting Station
Clear Clear  
Wind Chill: 24°   Ceiling: Unl
Heat Index: 34°   Visibility: 15mi
Dew Point: 28°   Wind: 15mph
Humidity: 81%   Direction: 40°NE
Pressure: 30.3"   Gusts: 21mph
Location:  46.57°N, 80.87°W
Report Text: CYSB 220400Z 04013G18KT 15SM SKC 01/M02 A3030 RMK SLP276
Loading
Personal Weather Stations






























Interactive Weather Map
Tropical Storm Tracking
New forecast layout! Learn more

10-Day Weather Forecast

Advertisements
Track Severe Weather on mobile